sensor_id;sensor_type;location;lat;lon;timestamp;temperature;humidity
25582;DHT22;13462;50.764;4.332;2023-04-15T00:01:08;9.20;99.90
25582;DHT22;13462;50.764;4.332;2023-04-15T00:03:34;9.50;99.90
25582;DHT22;13462;50.764;4.332;2023-04-15T00:06:00;9.50;99.90
25582;DHT22;13462;50.764;4.332;2023-04-15T00:08:26;9.50;99.90
25582;DHT22;13462;50.764;4.332;2023-04-15T00:10:51;9.40;99.90
25582;DHT22;13462;50.764;4.332;2023-04-15T00:13:17;9.50;99.90
25582;DHT22;13462;50.764;4.332;2023-04-15T00:15:42;9.50;99.90
25582;DHT22;13462;50.764;4.332;2023-04-15T00:18:08;9.50;99.90
25582;DHT22;13462;50.764;4.332;2023-04-15T00:20:34;9.50;99.90
25582;DHT22;13462;50.764;4.332;2023-04-15T00:23:00;9.40;99.90
25582;DHT22;13462;50.764;4.332;2023-04-15T00:25:26;9.40;99.90
25582;DHT22;13462;50.764;4.332;2023-04-15T00:27:52;9.40;99.90
25582;DHT22;13462;50.764;4.332;2023-04-15T00:30:18;9.40;99.90
25582;DHT22;13462;50.764;4.332;2023-04-15T00:32:43;9.40;99.90
25582;DHT22;13462;50.764;4.332;2023-04-15T00:35:09;9.40;99.90
25582;DHT22;13462;50.764;4.332;2023-04-15T00:37:35;9.40;99.90
25582;DHT22;13462;50.764;4.332;2023-04-15T00:40:01;9.40;99.90
25582;DHT22;13462;50.764;4.332;2023-04-15T00:42:29;9.30;99.90
25582;DHT22;13462;50.764;4.332;2023-04-15T00:44:55;9.30;99.90
25582;DHT22;13462;50.764;4.332;2023-04-15T00:47:21;9.30;99.90
25582;DHT22;13462;50.764;4.332;2023-04-15T00:49:47;9.30;99.90
25582;DHT22;13462;50.764;4.332;2023-04-15T00:52:12;9.30;99.90
25582;DHT22;13462;50.764;4.332;2023-04-15T00:54:38;9.40;99.90
25582;DHT22;13462;50.764;4.332;2023-04-15T00:57:04;9.50;99.90
25582;DHT22;13462;50.764;4.332;2023-04-15T00:59:30;9.50;99.90
25582;DHT22;13462;50.764;4.332;2023-04-15T01:01:57;9.50;99.90
25582;DHT22;13462;50.764;4.332;2023-04-15T01:04:22;9.50;99.90
25582;DHT22;13462;50.764;4.332;2023-04-15T01:06:48;9.50;99.90
25582;DHT22;13462;50.764;4.332;2023-04-15T01:09:13;9.50;99.90
25582;DHT22;13462;50.764;4.332;2023-04-15T01:11:38;9.50;99.90
25582;DHT22;13462;50.764;4.332;2023-04-15T01:14:04;9.50;99.90
25582;DHT22;13462;50.764;4.332;2023-04-15T01:16:30;9.40;99.90
25582;DHT22;13462;50.764;4.332;2023-04-15T01:18:55;9.40;99.90
25582;DHT22;13462;50.764;4.332;2023-04-15T01:21:21;9.40;99.90
25582;DHT22;13462;50.764;4.332;2023-04-15T01:23:46;9.40;99.90
25582;DHT22;13462;50.764;4.332;2023-04-15T01:26:13;9.50;99.90
25582;DHT22;13462;50.764;4.332;2023-04-15T01:28:38;9.40;99.90
25582;DHT22;13462;50.764;4.332;2023-04-15T01:31:06;9.50;99.90
25582;DHT22;13462;50.764;4.332;2023-04-15T01:33:32;9.40;99.90
25582;DHT22;13462;50.764;4.332;2023-04-15T01:35:57;9.50;99.90
25582;DHT22;13462;50.764;4.332;2023-04-15T01:38:23;9.50;99.90
25582;DHT22;13462;50.764;4.332;2023-04-15T01:40:48;9.40;99.90
25582;DHT22;13462;50.764;4.332;2023-04-15T01:43:14;9.40;99.90
25582;DHT22;13462;50.764;4.332;2023-04-15T01:45:39;9.40;99.90
25582;DHT22;13462;50.764;4.332;2023-04-15T01:48:05;9.40;99.90
25582;DHT22;13462;50.764;4.332;2023-04-15T01:50:31;9.40;99.90
25582;DHT22;13462;50.764;4.332;2023-04-15T01:52:56;9.30;99.90
25582;DHT22;13462;50.764;4.332;2023-04-15T01:55:22;9.40;99.90
25582;DHT22;13462;50.764;4.332;2023-04-15T01:57:48;9.40;99.90
25582;DHT22;13462;50.764;4.332;2023-04-15T02:00:13;9.40;99.90
25582;DHT22;13462;50.764;4.332;2023-04-15T02:02:39;9.40;99.90
25582;DHT22;13462;50.764;4.332;2023-04-15T02:05:04;9.50;99.90
25582;DHT22;13462;50.764;4.332;2023-04-15T02:07:30;9.40;99.90
25582;DHT22;13462;50.764;4.332;2023-04-15T02:09:56;9.40;99.90
25582;DHT22;13462;50.764;4.332;2023-04-15T02:12:22;9.40;99.90
25582;DHT22;13462;50.764;4.332;2023-04-15T02:14:47;9.30;99.90
25582;DHT22;13462;50.764;4.332;2023-04-15T02:17:13;9.30;99.90
25582;DHT22;13462;50.764;4.332;2023-04-15T02:19:38;9.30;99.90
25582;DHT22;13462;50.764;4.332;2023-04-15T02:22:04;9.30;99.90
25582;DHT22;13462;50.764;4.332;2023-04-15T02:24:31;9.20;99.90
25582;DHT22;13462;50.764;4.332;2023-04-15T02:26:57;9.20;99.90
25582;DHT22;13462;50.764;4.332;2023-04-15T02:29:22;9.20;99.90
25582;DHT22;13462;50.764;4.332;2023-04-15T02:31:48;9.20;99.90
25582;DHT22;13462;50.764;4.332;2023-04-15T02:34:14;9.20;99.90
25582;DHT22;13462;50.764;4.332;2023-04-15T02:36:39;9.30;99.90
25582;DHT22;13462;50.764;4.332;2023-04-15T02:39:05;9.30;99.90
25582;DHT22;13462;50.764;4.332;2023-04-15T02:41:31;9.30;99.90
25582;DHT22;13462;50.764;4.332;2023-04-15T02:43:56;9.30;99.90
25582;DHT22;13462;50.764;4.332;2023-04-15T02:46:22;9.20;99.90
25582;DHT22;13462;50.764;4.332;2023-04-15T02:48:50;9.30;99.90
25582;DHT22;13462;50.764;4.332;2023-04-15T02:51:18;9.20;99.90
25582;DHT22;13462;50.764;4.332;2023-04-15T02:53:44;9.30;99.90
25582;DHT22;13462;50.764;4.332;2023-04-15T02:56:10;9.40;99.90
25582;DHT22;13462;50.764;4.332;2023-04-15T02:58:36;9.40;99.90
25582;DHT22;13462;50.764;4.332;2023-04-15T03:01:01;9.40;99.90
25582;DHT22;13462;50.764;4.332;2023-04-15T03:03:26;9.30;99.90
25582;DHT22;13462;50.764;4.332;2023-04-15T03:05:52;9.30;99.90
25582;DHT22;13462;50.764;4.332;2023-04-15T03:08:18;9.30;99.90
25582;DHT22;13462;50.764;4.332;2023-04-15T03:10:45;9.20;99.90
25582;DHT22;13462;50.764;4.332;2023-04-15T03:13:10;9.30;99.90
25582;DHT22;13462;50.764;4.332;2023-04-15T03:15:35;9.30;99.90
25582;DHT22;13462;50.764;4.332;2023-04-15T03:18:01;9.20;99.90
25582;DHT22;13462;50.764;4.332;2023-04-15T03:20:26;9.30;99.90
25582;DHT22;13462;50.764;4.332;2023-04-15T03:22:52;9.30;99.90
25582;DHT22;13462;50.764;4.332;2023-04-15T03:25:17;9.40;99.90
25582;DHT22;13462;50.764;4.332;2023-04-15T03:27:43;9.40;99.90
25582;DHT22;13462;50.764;4.332;2023-04-15T03:30:08;9.50;99.90
25582;DHT22;13462;50.764;4.332;2023-04-15T03:32:34;9.30;99.90
25582;DHT22;13462;50.764;4.332;2023-04-15T03:34:59;9.40;99.90
25582;DHT22;13462;50.764;4.332;2023-04-15T03:37:25;9.40;99.90
25582;DHT22;13462;50.764;4.332;2023-04-15T03:39:50;9.40;99.90
25582;DHT22;13462;50.764;4.332;2023-04-15T03:42:16;9.40;99.90
25582;DHT22;13462;50.764;4.332;2023-04-15T03:44:41;9.30;99.90
25582;DHT22;13462;50.764;4.332;2023-04-15T03:47:07;9.40;99.90
25582;DHT22;13462;50.764;4.332;2023-04-15T03:49:32;9.60;99.90
25582;DHT22;13462;50.764;4.332;2023-04-15T03:51:58;9.60;99.90
25582;DHT22;13462;50.764;4.332;2023-04-15T03:54:24;9.60;99.90
25582;DHT22;13462;50.764;4.332;2023-04-15T03:56:49;9.20;99.90
25582;DHT22;13462;50.764;4.332;2023-04-15T03:59:15;9.20;99.90
25582;DHT22;13462;50.764;4.332;2023-04-15T04:01:40;9.30;99.90
25582;DHT22;13462;50.764;4.332;2023-04-15T04:04:06;9.30;99.90
25582;DHT22;13462;50.764;4.332;2023-04-15T04:06:31;9.40;99.90
25582;DHT22;13462;50.764;4.332;2023-04-15T04:08:57;9.40;99.90
25582;DHT22;13462;50.764;4.332;2023-04-15T04:11:23;9.30;99.90
25582;DHT22;13462;50.764;4.332;2023-04-15T04:13:48;9.30;99.90
25582;DHT22;13462;50.764;4.332;2023-04-15T04:16:13;9.40;99.90
25582;DHT22;13462;50.764;4.332;2023-04-15T04:18:39;9.40;99.90
25582;DHT22;13462;50.764;4.332;2023-04-15T04:21:04;9.40;99.90
25582;DHT22;13462;50.764;4.332;2023-04-15T04:23:30;9.40;99.90
25582;DHT22;13462;50.764;4.332;2023-04-15T04:25:55;9.40;99.90
25582;DHT22;13462;50.764;4.332;2023-04-15T04:28:21;9.40;99.90
25582;DHT22;13462;50.764;4.332;2023-04-15T04:30:46;9.50;99.90
25582;DHT22;13462;50.764;4.332;2023-04-15T04:33:12;9.40;99.90
25582;DHT22;13462;50.764;4.332;2023-04-15T04:35:37;9.30;99.90
25582;DHT22;13462;50.764;4.332;2023-04-15T04:38:03;9.30;99.90
25582;DHT22;13462;50.764;4.332;2023-04-15T04:40:28;9.30;99.90
25582;DHT22;13462;50.764;4.332;2023-04-15T04:42:54;9.30;99.90
25582;DHT22;13462;50.764;4.332;2023-04-15T04:45:19;9.30;99.90
25582;DHT22;13462;50.764;4.332;2023-04-15T04:47:45;9.30;99.90
25582;DHT22;13462;50.764;4.332;2023-04-15T04:50:13;9.30;99.90
25582;DHT22;13462;50.764;4.332;2023-04-15T04:52:38;9.30;99.90
25582;DHT22;13462;50.764;4.332;2023-04-15T04:55:04;9.30;99.90
25582;DHT22;13462;50.764;4.332;2023-04-15T04:57:30;9.40;99.90
25582;DHT22;13462;50.764;4.332;2023-04-15T04:59:55;9.60;99.90
25582;DHT22;13462;50.764;4.332;2023-04-15T05:02:21;9.60;99.90
25582;DHT22;13462;50.764;4.332;2023-04-15T05:04:46;9.60;99.90
25582;DHT22;13462;50.764;4.332;2023-04-15T05:07:11;9.60;99.90
25582;DHT22;13462;50.764;4.332;2023-04-15T05:09:37;9.50;99.90
25582;DHT22;13462;50.764;4.332;2023-04-15T05:12:03;9.50;99.90
25582;DHT22;13462;50.764;4.332;2023-04-15T05:14:28;9.50;99.90
25582;DHT22;13462;50.764;4.332;2023-04-15T05:16:54;9.40;99.90
25582;DHT22;13462;50.764;4.332;2023-04-15T05:19:19;9.40;99.90
25582;DHT22;13462;50.764;4.332;2023-04-15T05:21:45;9.30;99.90
25582;DHT22;13462;50.764;4.332;2023-04-15T05:24:10;9.30;99.90
25582;DHT22;13462;50.764;4.332;2023-04-15T05:26:36;9.30;99.90
25582;DHT22;13462;50.764;4.332;2023-04-15T05:29:01;9.30;99.90
25582;DHT22;13462;50.764;4.332;2023-04-15T05:31:27;9.30;99.90
25582;DHT22;13462;50.764;4.332;2023-04-15T05:33:52;9.30;99.90
25582;DHT22;13462;50.764;4.332;2023-04-15T05:36:17;9.30;99.90
25582;DHT22;13462;50.764;4.332;2023-04-15T05:38:43;9.30;99.90
25582;DHT22;13462;50.764;4.332;2023-04-15T05:41:08;9.30;99.90
25582;DHT22;13462;50.764;4.332;2023-04-15T05:43:34;9.30;99.90
25582;DHT22;13462;50.764;4.332;2023-04-15T05:45:59;9.40;99.90
25582;DHT22;13462;50.764;4.332;2023-04-15T05:48:25;9.40;99.90
25582;DHT22;13462;50.764;4.332;2023-04-15T05:50:50;9.40;99.90
25582;DHT22;13462;50.764;4.332;2023-04-15T05:53:16;9.50;99.90
25582;DHT22;13462;50.764;4.332;2023-04-15T05:55:41;9.50;99.90
25582;DHT22;13462;50.764;4.332;2023-04-15T05:58:07;9.60;99.90
25582;DHT22;13462;50.764;4.332;2023-04-15T06:00:32;9.60;99.90
25582;DHT22;13462;50.764;4.332;2023-04-15T06:02:58;9.70;99.90
25582;DHT22;13462;50.764;4.332;2023-04-15T06:05:24;9.80;99.90
25582;DHT22;13462;50.764;4.332;2023-04-15T06:07:49;10.10;99.90
25582;DHT22;13462;50.764;4.332;2023-04-15T06:10:15;10.20;99.90
25582;DHT22;13462;50.764;4.332;2023-04-15T06:12:41;10.20;99.90
25582;DHT22;13462;50.764;4.332;2023-04-15T06:15:06;10.30;99.90
25582;DHT22;13462;50.764;4.332;2023-04-15T06:17:34;10.50;99.90
25582;DHT22;13462;50.764;4.332;2023-04-15T06:19:59;10.60;99.90
25582;DHT22;13462;50.764;4.332;2023-04-15T06:22:25;10.70;99.90
25582;DHT22;13462;50.764;4.332;2023-04-15T06:24:50;10.80;99.90
25582;DHT22;13462;50.764;4.332;2023-04-15T06:27:16;10.80;99.90
25582;DHT22;13462;50.764;4.332;2023-04-15T06:29:42;10.80;99.90
25582;DHT22;13462;50.764;4.332;2023-04-15T06:32:07;10.90;99.90
25582;DHT22;13462;50.764;4.332;2023-04-15T06:34:33;11.00;99.90
25582;DHT22;13462;50.764;4.332;2023-04-15T06:36:58;11.10;99.90
25582;DHT22;13462;50.764;4.332;2023-04-15T06:39:25;11.30;99.90
25582;DHT22;13462;50.764;4.332;2023-04-15T06:41:50;11.60;99.90
25582;DHT22;13462;50.764;4.332;2023-04-15T06:44:16;12.00;99.90
25582;DHT22;13462;50.764;4.332;2023-04-15T06:46:43;12.30;99.90
25582;DHT22;13462;50.764;4.332;2023-04-15T06:49:09;12.60;99.90
25582;DHT22;13462;50.764;4.332;2023-04-15T06:51:34;12.90;99.90
25582;DHT22;13462;50.764;4.332;2023-04-15T06:54:00;13.20;99.90
25582;DHT22;13462;50.764;4.332;2023-04-15T06:56:26;13.40;99.90
25582;DHT22;13462;50.764;4.332;2023-04-15T06:58:52;13.60;99.90
25582;DHT22;13462;50.764;4.332;2023-04-15T07:01:17;13.70;99.90
25582;DHT22;13462;50.764;4.332;2023-04-15T07:03:43;13.70;99.90
25582;DHT22;13462;50.764;4.332;2023-04-15T07:06:09;13.90;99.90
25582;DHT22;13462;50.764;4.332;2023-04-15T07:08:34;14.30;99.90
25582;DHT22;13462;50.764;4.332;2023-04-15T07:11:00;14.60;99.90
25582;DHT22;13462;50.764;4.332;2023-04-15T07:13:26;14.50;99.90
25582;DHT22;13462;50.764;4.332;2023-04-15T07:15:51;14.70;99.90
25582;DHT22;13462;50.764;4.332;2023-04-15T07:18:17;14.80;99.90
25582;DHT22;13462;50.764;4.332;2023-04-15T07:20:42;15.20;99.90
25582;DHT22;13462;50.764;4.332;2023-04-15T07:23:08;15.60;99.90
25582;DHT22;13462;50.764;4.332;2023-04-15T07:25:33;16.10;99.90
25582;DHT22;13462;50.764;4.332;2023-04-15T07:27:59;16.70;99.90
25582;DHT22;13462;50.764;4.332;2023-04-15T07:30:25;17.80;99.90
25582;DHT22;13462;50.764;4.332;2023-04-15T07:32:50;18.10;99.90
25582;DHT22;13462;50.764;4.332;2023-04-15T07:35:16;18.50;99.90
25582;DHT22;13462;50.764;4.332;2023-04-15T07:37:41;18.90;99.90
25582;DHT22;13462;50.764;4.332;2023-04-15T07:40:07;19.10;99.90
25582;DHT22;13462;50.764;4.332;2023-04-15T07:42:33;19.10;99.90
25582;DHT22;13462;50.764;4.332;2023-04-15T07:44:59;19.90;98.20
25582;DHT22;13462;50.764;4.332;2023-04-15T07:47:24;21.10;97.20
25582;DHT22;13462;50.764;4.332;2023-04-15T07:49:51;22.30;94.30
25582;DHT22;13462;50.764;4.332;2023-04-15T07:52:17;23.10;90.90
25582;DHT22;13462;50.764;4.332;2023-04-15T07:54:42;23.70;86.30
25582;DHT22;13462;50.764;4.332;2023-04-15T07:57:08;23.90;80.60
25582;DHT22;13462;50.764;4.332;2023-04-15T07:59:33;23.40;80.60
25582;DHT22;13462;50.764;4.332;2023-04-15T08:01:59;23.90;83.80
25582;DHT22;13462;50.764;4.332;2023-04-15T08:04:24;24.40;78.90
25582;DHT22;13462;50.764;4.332;2023-04-15T08:06:50;25.10;78.70
25582;DHT22;13462;50.764;4.332;2023-04-15T08:09:16;25.60;74.00
25582;DHT22;13462;50.764;4.332;2023-04-15T08:11:42;25.30;73.10
25582;DHT22;13462;50.764;4.332;2023-04-15T08:14:07;24.80;71.90
25582;DHT22;13462;50.764;4.332;2023-04-15T08:16:33;24.70;75.70
25582;DHT22;13462;50.764;4.332;2023-04-15T08:18:58;25.20;74.10
25582;DHT22;13462;50.764;4.332;2023-04-15T08:21:24;25.20;70.40
25582;DHT22;13462;50.764;4.332;2023-04-15T08:23:50;25.00;71.90
25582;DHT22;13462;50.764;4.332;2023-04-15T08:26:16;25.10;70.10
25582;DHT22;13462;50.764;4.332;2023-04-15T08:28:42;24.30;68.70
25582;DHT22;13462;50.764;4.332;2023-04-15T08:31:08;23.30;71.90
25582;DHT22;13462;50.764;4.332;2023-04-15T08:33:33;22.70;75.30
25582;DHT22;13462;50.764;4.332;2023-04-15T08:35:59;23.10;74.10
25582;DHT22;13462;50.764;4.332;2023-04-15T08:38:24;22.90;72.00
25582;DHT22;13462;50.764;4.332;2023-04-15T08:40:50;22.30;75.10
25582;DHT22;13462;50.764;4.332;2023-04-15T08:45:44;21.90;77.80
25582;DHT22;13462;50.764;4.332;2023-04-15T08:48:12;22.00;78.30
25582;DHT22;13462;50.764;4.332;2023-04-15T08:50:38;21.60;74.60
25582;DHT22;13462;50.764;4.332;2023-04-15T08:53:04;21.20;80.10
25582;DHT22;13462;50.764;4.332;2023-04-15T08:55:31;21.20;79.30
25582;DHT22;13462;50.764;4.332;2023-04-15T08:58:01;20.80;80.00
25582;DHT22;13462;50.764;4.332;2023-04-15T09:00:27;20.70;80.10
25582;DHT22;13462;50.764;4.332;2023-04-15T09:02:54;21.00;82.10
25582;DHT22;13462;50.764;4.332;2023-04-15T09:05:20;21.00;79.40
25582;DHT22;13462;50.764;4.332;2023-04-15T09:07:46;21.10;80.70
25582;DHT22;13462;50.764;4.332;2023-04-15T09:10:11;21.40;78.20
25582;DHT22;13462;50.764;4.332;2023-04-15T09:12:37;21.30;77.10
25582;DHT22;13462;50.764;4.332;2023-04-15T09:15:03;21.30;79.10
25582;DHT22;13462;50.764;4.332;2023-04-15T09:17:28;22.10;79.20
25582;DHT22;13462;50.764;4.332;2023-04-15T09:20:09;22.90;78.10
25582;DHT22;13462;50.764;4.332;2023-04-15T09:22:35;23.00;71.80
25582;DHT22;13462;50.764;4.332;2023-04-15T09:25:02;23.40;71.00
25582;DHT22;13462;50.764;4.332;2023-04-15T09:27:28;24.10;69.80
25582;DHT22;13462;50.764;4.332;2023-04-15T09:29:53;24.70;69.20
25582;DHT22;13462;50.764;4.332;2023-04-15T09:32:20;24.70;67.40
25582;DHT22;13462;50.764;4.332;2023-04-15T09:34:47;24.80;67.00
25582;DHT22;13462;50.764;4.332;2023-04-15T09:37:13;24.70;67.30
25582;DHT22;13462;50.764;4.332;2023-04-15T09:39:48;24.90;68.10
25582;DHT22;13462;50.764;4.332;2023-04-15T09:42:14;24.80;66.50
25582;DHT22;13462;50.764;4.332;2023-04-15T09:44:41;25.50;64.80
25582;DHT22;13462;50.764;4.332;2023-04-15T09:47:07;26.60;65.90
25582;DHT22;13462;50.764;4.332;2023-04-15T09:49:32;25.30;64.00
25582;DHT22;13462;50.764;4.332;2023-04-15T09:51:59;25.30;63.10
25582;DHT22;13462;50.764;4.332;2023-04-15T09:54:31;24.90;64.00
25582;DHT22;13462;50.764;4.332;2023-04-15T09:57:03;25.30;64.30
25582;DHT22;13462;50.764;4.332;2023-04-15T09:59:29;25.50;61.40
25582;DHT22;13462;50.764;4.332;2023-04-15T10:01:54;25.70;59.40
25582;DHT22;13462;50.764;4.332;2023-04-15T10:04:20;25.00;58.30
25582;DHT22;13462;50.764;4.332;2023-04-15T10:06:46;25.20;58.50
25582;DHT22;13462;50.764;4.332;2023-04-15T10:09:12;25.60;61.30
25582;DHT22;13462;50.764;4.332;2023-04-15T10:11:37;25.60;59.30
25582;DHT22;13462;50.764;4.332;2023-04-15T10:14:03;27.00;60.80
25582;DHT22;13462;50.764;4.332;2023-04-15T10:16:31;27.50;57.90
25582;DHT22;13462;50.764;4.332;2023-04-15T10:18:57;27.20;57.30
25582;DHT22;13462;50.764;4.332;2023-04-15T10:21:25;26.90;54.50
25582;DHT22;13462;50.764;4.332;2023-04-15T10:23:52;26.00;56.30
25582;DHT22;13462;50.764;4.332;2023-04-15T10:26:17;26.40;57.10
25582;DHT22;13462;50.764;4.332;2023-04-15T10:28:43;25.70;57.40
25582;DHT22;13462;50.764;4.332;2023-04-15T10:31:10;26.20;58.40
25582;DHT22;13462;50.764;4.332;2023-04-15T10:33:37;26.50;57.50
25582;DHT22;13462;50.764;4.332;2023-04-15T10:36:03;27.20;56.80
25582;DHT22;13462;50.764;4.332;2023-04-15T10:38:37;27.30;56.40
25582;DHT22;13462;50.764;4.332;2023-04-15T10:41:22;27.30;54.20
25582;DHT22;13462;50.764;4.332;2023-04-15T10:51:31;26.70;51.60
25582;DHT22;13462;50.764;4.332;2023-04-15T10:54:00;26.40;55.20
25582;DHT22;13462;50.764;4.332;2023-04-15T10:56:28;27.00;54.10
25582;DHT22;13462;50.764;4.332;2023-04-15T10:58:54;27.00;53.10
25582;DHT22;13462;50.764;4.332;2023-04-15T11:01:20;26.00;51.80
25582;DHT22;13462;50.764;4.332;2023-04-15T11:03:49;25.70;55.40
25582;DHT22;13462;50.764;4.332;2023-04-15T11:06:15;25.60;56.50
25582;DHT22;13462;50.764;4.332;2023-04-15T11:08:54;25.20;56.10
25582;DHT22;13462;50.764;4.332;2023-04-15T11:11:20;25.90;56.10
25582;DHT22;13462;50.764;4.332;2023-04-15T11:13:47;26.20;54.20
25582;DHT22;13462;50.764;4.332;2023-04-15T11:16:13;26.50;53.40
25582;DHT22;13462;50.764;4.332;2023-04-15T11:18:39;27.10;54.50
25582;DHT22;13462;50.764;4.332;2023-04-15T11:21:05;27.40;53.00
25582;DHT22;13462;50.764;4.332;2023-04-15T11:25:56;28.20;49.50
25582;DHT22;13462;50.764;4.332;2023-04-15T11:28:29;28.20;46.70
25582;DHT22;13462;50.764;4.332;2023-04-15T11:30:55;27.50;48.30
25582;DHT22;13462;50.764;4.332;2023-04-15T11:33:20;27.20;48.00
25582;DHT22;13462;50.764;4.332;2023-04-15T11:35:46;26.90;49.40
25582;DHT22;13462;50.764;4.332;2023-04-15T11:38:13;27.30;45.80
25582;DHT22;13462;50.764;4.332;2023-04-15T11:40:38;27.30;44.50
25582;DHT22;13462;50.764;4.332;2023-04-15T11:43:07;26.60;46.30
25582;DHT22;13462;50.764;4.332;2023-04-15T11:45:34;26.40;48.90
25582;DHT22;13462;50.764;4.332;2023-04-15T11:48:06;26.70;47.10
25582;DHT22;13462;50.764;4.332;2023-04-15T11:50:32;26.80;47.40
25582;DHT22;13462;50.764;4.332;2023-04-15T11:52:58;26.70;46.60
25582;DHT22;13462;50.764;4.332;2023-04-15T11:55:24;26.00;47.00
25582;DHT22;13462;50.764;4.332;2023-04-15T11:58:12;26.00;49.90
25582;DHT22;13462;50.764;4.332;2023-04-15T12:00:36;26.60;51.40
25582;DHT22;13462;50.764;4.332;2023-04-15T12:03:12;27.60;48.80
25582;DHT22;13462;50.764;4.332;2023-04-15T12:08:21;28.50;48.00
25582;DHT22;13462;50.764;4.332;2023-04-15T12:10:47;28.80;45.50
25582;DHT22;13462;50.764;4.332;2023-04-15T12:13:13;27.90;45.40
25582;DHT22;13462;50.764;4.332;2023-04-15T12:15:38;27.30;41.30
25582;DHT22;13462;50.764;4.332;2023-04-15T12:18:04;26.80;41.90
25582;DHT22;13462;50.764;4.332;2023-04-15T12:20:29;26.20;43.40
25582;DHT22;13462;50.764;4.332;2023-04-15T12:23:04;25.90;45.00
25582;DHT22;13462;50.764;4.332;2023-04-15T12:25:33;25.30;45.10
25582;DHT22;13462;50.764;4.332;2023-04-15T12:27:58;25.40;47.40
25582;DHT22;13462;50.764;4.332;2023-04-15T12:30:24;25.40;47.40
25582;DHT22;13462;50.764;4.332;2023-04-15T12:32:50;26.00;47.30
25582;DHT22;13462;50.764;4.332;2023-04-15T12:35:16;26.30;47.20
25582;DHT22;13462;50.764;4.332;2023-04-15T12:37:43;26.00;45.30
25582;DHT22;13462;50.764;4.332;2023-04-15T12:40:09;25.70;44.10
25582;DHT22;13462;50.764;4.332;2023-04-15T12:42:34;25.70;45.80
25582;DHT22;13462;50.764;4.332;2023-04-15T12:45:00;25.30;45.00
25582;DHT22;13462;50.764;4.332;2023-04-15T12:47:25;25.20;47.30
25582;DHT22;13462;50.764;4.332;2023-04-15T12:49:51;24.70;47.00
25582;DHT22;13462;50.764;4.332;2023-04-15T12:52:16;24.10;48.00
25582;DHT22;13462;50.764;4.332;2023-04-15T12:54:42;24.80;52.60
25582;DHT22;13462;50.764;4.332;2023-04-15T12:57:07;25.40;48.40
25582;DHT22;13462;50.764;4.332;2023-04-15T12:59:33;25.80;45.70
25582;DHT22;13462;50.764;4.332;2023-04-15T13:01:59;26.10;43.60
25582;DHT22;13462;50.764;4.332;2023-04-15T13:04:25;26.30;43.30
25582;DHT22;13462;50.764;4.332;2023-04-15T13:06:54;26.30;46.20
25582;DHT22;13462;50.764;4.332;2023-04-15T13:09:20;26.60;42.90
25582;DHT22;13462;50.764;4.332;2023-04-15T13:11:45;26.10;45.60
25582;DHT22;13462;50.764;4.332;2023-04-15T13:14:11;26.00;45.10
25582;DHT22;13462;50.764;4.332;2023-04-15T13:16:37;25.60;43.50
25582;DHT22;13462;50.764;4.332;2023-04-15T13:19:02;25.20;44.50
25582;DHT22;13462;50.764;4.332;2023-04-15T13:21:28;25.30;44.70
25582;DHT22;13462;50.764;4.332;2023-04-15T13:23:56;25.40;44.60
25582;DHT22;13462;50.764;4.332;2023-04-15T13:26:21;25.30;44.60
25582;DHT22;13462;50.764;4.332;2023-04-15T13:28:47;25.20;45.60
25582;DHT22;13462;50.764;4.332;2023-04-15T13:31:12;24.70;45.90
25582;DHT22;13462;50.764;4.332;2023-04-15T13:33:38;24.50;48.50
25582;DHT22;13462;50.764;4.332;2023-04-15T13:36:03;24.30;48.30
25582;DHT22;13462;50.764;4.332;2023-04-15T13:38:29;24.10;48.30
25582;DHT22;13462;50.764;4.332;2023-04-15T13:40:54;24.10;46.90
25582;DHT22;13462;50.764;4.332;2023-04-15T13:43:20;24.00;48.50
25582;DHT22;13462;50.764;4.332;2023-04-15T13:45:46;24.00;49.10
25582;DHT22;13462;50.764;4.332;2023-04-15T13:48:11;23.40;49.30
25582;DHT22;13462;50.764;4.332;2023-04-15T13:50:37;23.40;53.40
25582;DHT22;13462;50.764;4.332;2023-04-15T13:53:02;23.40;52.60
25582;DHT22;13462;50.764;4.332;2023-04-15T13:55:28;23.30;52.80
25582;DHT22;13462;50.764;4.332;2023-04-15T13:57:53;23.40;53.90
25582;DHT22;13462;50.764;4.332;2023-04-15T14:00:19;23.10;54.10
25582;DHT22;13462;50.764;4.332;2023-04-15T14:02:45;23.30;52.30
25582;DHT22;13462;50.764;4.332;2023-04-15T14:05:10;22.90;52.10
25582;DHT22;13462;50.764;4.332;2023-04-15T14:07:36;22.10;51.40
25582;DHT22;13462;50.764;4.332;2023-04-15T14:10:02;21.90;52.90
25582;DHT22;13462;50.764;4.332;2023-04-15T14:12:27;21.60;52.90
25582;DHT22;13462;50.764;4.332;2023-04-15T14:14:53;21.30;55.60
25582;DHT22;13462;50.764;4.332;2023-04-15T14:17:18;21.30;53.20
25582;DHT22;13462;50.764;4.332;2023-04-15T14:19:44;20.90;52.80
25582;DHT22;13462;50.764;4.332;2023-04-15T14:22:09;20.50;54.50
25582;DHT22;13462;50.764;4.332;2023-04-15T14:24:35;20.10;55.10
25582;DHT22;13462;50.764;4.332;2023-04-15T14:27:00;19.90;56.60
25582;DHT22;13462;50.764;4.332;2023-04-15T14:29:26;20.00;58.10
25582;DHT22;13462;50.764;4.332;2023-04-15T14:31:52;20.20;58.90
25582;DHT22;13462;50.764;4.332;2023-04-15T14:34:17;20.10;58.50
25582;DHT22;13462;50.764;4.332;2023-04-15T14:36:43;20.30;59.40
25582;DHT22;13462;50.764;4.332;2023-04-15T14:39:09;20.60;58.30
25582;DHT22;13462;50.764;4.332;2023-04-15T14:41:35;20.60;58.20
25582;DHT22;13462;50.764;4.332;2023-04-15T14:44:00;20.40;58.70
25582;DHT22;13462;50.764;4.332;2023-04-15T14:46:26;20.30;58.00
25582;DHT22;13462;50.764;4.332;2023-04-15T14:48:51;20.20;60.80
25582;DHT22;13462;50.764;4.332;2023-04-15T14:51:17;20.20;58.40
25582;DHT22;13462;50.764;4.332;2023-04-15T14:53:42;19.70;57.80
25582;DHT22;13462;50.764;4.332;2023-04-15T14:56:08;19.40;59.30
25582;DHT22;13462;50.764;4.332;2023-04-15T14:58:34;19.30;59.40
25582;DHT22;13462;50.764;4.332;2023-04-15T15:00:59;19.30;57.20
25582;DHT22;13462;50.764;4.332;2023-04-15T15:03:26;19.50;60.20
25582;DHT22;13462;50.764;4.332;2023-04-15T15:05:51;19.60;59.20
25582;DHT22;13462;50.764;4.332;2023-04-15T15:08:17;19.20;57.00
25582;DHT22;13462;50.764;4.332;2023-04-15T15:10:42;19.00;60.90
25582;DHT22;13462;50.764;4.332;2023-04-15T15:13:08;18.70;59.10
25582;DHT22;13462;50.764;4.332;2023-04-15T15:15:34;18.70;59.90
25582;DHT22;13462;50.764;4.332;2023-04-15T15:18:00;18.60;63.10
25582;DHT22;13462;50.764;4.332;2023-04-15T15:20:25;18.70;62.20
25582;DHT22;13462;50.764;4.332;2023-04-15T15:22:51;18.90;64.50
25582;DHT22;13462;50.764;4.332;2023-04-15T15:25:16;19.10;64.60
25582;DHT22;13462;50.764;4.332;2023-04-15T15:27:42;19.20;66.50
25582;DHT22;13462;50.764;4.332;2023-04-15T15:30:07;19.30;66.80
25582;DHT22;13462;50.764;4.332;2023-04-15T15:32:33;19.30;63.30
25582;DHT22;13462;50.764;4.332;2023-04-15T15:34:59;18.80;65.00
25582;DHT22;13462;50.764;4.332;2023-04-15T15:37:24;18.70;67.50
25582;DHT22;13462;50.764;4.332;2023-04-15T15:39:50;18.90;69.20
25582;DHT22;13462;50.764;4.332;2023-04-15T15:42:17;18.90;70.10
25582;DHT22;13462;50.764;4.332;2023-04-15T15:44:43;19.00;71.80